Time;durP1;ratioP1;P1;durP2;ratioP2;P2;SDS_P1;SDS_P2;PMS_P1;PMS_P2;Temp;Humidity;BMP_temperature;BMP_pressure;BME280_temperature;BME280_humidity;BME280_pressure;Samples;Min_cycle;Max_cycle;Signal;HPM_P1;HPM_P2
2022/05/15 00:02:40;;;;;;;24.80;11.32;;;10.60;99.90;;;;;;5041893;28;20182;-71
2022/05/15 00:05:06;;;;;;;24.52;11.30;;;10.90;99.90;;;;;;5045032;28;20041;-68
2022/05/15 00:07:31;;;;;;;33.58;13.63;;;11.10;99.90;;;;;;5043570;28;20094;-71
2022/05/15 00:09:57;;;;;;;31.73;16.23;;;11.10;99.90;;;;;;5047874;28;20761;-69
2022/05/15 00:12:23;;;;;;;26.55;16.00;;;11.10;99.90;;;;;;5049389;28;20055;-70
2022/05/15 00:14:49;;;;;;;21.50;11.98;;;11.20;99.90;;;;;;5049133;28;20037;-71
2022/05/15 00:17:16;;;;;;;27.30;10.82;;;11.40;99.90;;;;;;5039467;28;20508;-71
2022/05/15 00:19:42;;;;;;;24.95;11.15;;;11.50;99.90;;;;;;5033062;28;20072;-71
2022/05/15 00:22:08;;;;;;;24.23;10.68;;;11.50;99.90;;;;;;5040778;28;20064;-71
2022/05/15 00:24:35;;;;;;;25.92;11.05;;;11.60;99.90;;;;;;5044594;28;20405;-71
2022/05/15 00:27:00;;;;;;;25.80;12.07;;;11.60;99.90;;;;;;5046123;28;20045;-70
2022/05/15 00:29:26;;;;;;;24.75;10.88;;;11.50;99.90;;;;;;5048514;28;20029;-71
2022/05/15 00:31:52;;;;;;;19.70;10.15;;;11.50;99.90;;;;;;5030944;28;20128;-69
2022/05/15 00:34:18;;;;;;;22.42;10.48;;;11.40;99.90;;;;;;5047771;28;20047;-72
2022/05/15 00:36:43;;;;;;;24.25;10.45;;;11.20;99.90;;;;;;5045724;28;20033;-71
2022/05/15 00:39:09;;;;;;;21.55;10.15;;;11.10;99.90;;;;;;5032659;28;20033;-70
2022/05/15 00:41:40;;;;;;;24.00;10.23;;;11.00;99.90;;;;;;5030387;28;20455;-70
2022/05/15 00:44:07;;;;;;;20.23;9.82;;;10.90;99.90;;;;;;5016017;28;20040;-69
2022/05/15 00:46:37;;;;;;;16.73;8.23;;;10.80;99.90;;;;;;5046474;28;20060;-71
2022/05/15 00:49:12;;;;;;;18.80;8.57;;;10.80;99.90;;;;;;5045890;28;20577;-69
2022/05/15 00:51:47;;;;;;;18.65;8.30;;;10.70;99.90;;;;;;5048235;28;20048;-70
2022/05/15 00:54:36;;;;;;;18.23;8.32;;;10.70;99.90;;;;;;5018547;28;20041;-70
2022/05/15 00:57:09;;;;;;;15.40;8.13;;;10.80;99.90;;;;;;5047574;28;20094;-71
2022/05/15 00:59:41;;;;;;;19.33;9.52;;;10.80;99.90;;;;;;5023418;28;20037;-72
2022/05/15 01:02:09;;;;;;;19.55;9.45;;;10.70;99.90;;;;;;5019560;28;20041;-70
2022/05/15 01:04:36;;;;;;;23.58;10.02;;;10.80;99.90;;;;;;5043464;28;20040;-70
2022/05/15 01:07:03;;;;;;;21.85;8.00;;;10.80;99.90;;;;;;5025052;28;20394;-69
2022/05/15 01:09:29;;;;;;;17.83;7.35;;;10.80;99.90;;;;;;5048787;28;20071;-68
2022/05/15 01:11:56;;;;;;;14.13;6.70;;;10.60;99.90;;;;;;5045893;28;20045;-69
2022/05/15 01:14:22;;;;;;;16.13;7.53;;;10.40;99.90;;;;;;5045371;28;20518;-69
2022/05/15 01:16:48;;;;;;;14.32;6.75;;;10.20;99.90;;;;;;5044054;28;20540;-69
2022/05/15 01:19:14;;;;;;;11.95;6.28;;;10.10;99.90;;;;;;5041794;28;20037;-70
2022/05/15 01:21:52;;;;;;;11.55;6.07;;;9.90;99.90;;;;;;5039704;28;20048;-69
2022/05/15 01:24:18;;;;;;;16.70;6.60;;;9.80;99.90;;;;;;5061221;28;20041;-69
2022/05/15 01:26:45;;;;;;;15.23;6.05;;;9.80;99.90;;;;;;5047524;28;20045;-69
2022/05/15 01:29:11;;;;;;;16.52;6.60;;;9.80;99.90;;;;;;5047748;28;20583;-69
2022/05/15 01:31:37;;;;;;;13.77;6.10;;;9.90;99.90;;;;;;5039221;28;20040;-70
2022/05/15 01:34:07;;;;;;;11.85;5.35;;;9.60;99.90;;;;;;5030396;28;20037;-69
2022/05/15 01:36:32;;;;;;;10.77;4.97;;;9.30;99.90;;;;;;5029402;28;20041;-68
2022/05/15 01:38:58;;;;;;;12.43;5.93;;;8.90;99.90;;;;;;5026486;28;20072;-70
2022/05/15 01:41:27;;;;;;;10.43;5.05;;;8.90;99.90;;;;;;5045219;28;20123;-68
2022/05/15 01:43:53;;;;;;;13.85;5.18;;;8.80;99.90;;;;;;5021058;28;20393;-70
2022/05/15 01:46:24;;;;;;;11.25;5.10;;;8.90;99.90;;;;;;5015612;28;20041;-70
2022/05/15 01:48:51;;;;;;;12.75;4.82;;;8.90;99.90;;;;;;5030750;28;20036;-71
2022/05/15 01:51:17;;;;;;;12.45;4.70;;;8.90;99.90;;;;;;5040756;28;20400;-70
2022/05/15 01:53:43;;;;;;;11.65;4.68;;;8.80;99.90;;;;;;5040592;28;20332;-69
2022/05/15 01:56:10;;;;;;;12.75;5.10;;;8.90;99.90;;;;;;5048125;28;20036;-67
2022/05/15 01:58:36;;;;;;;12.50;5.47;;;8.90;99.90;;;;;;5044595;28;20045;-68
2022/05/15 02:01:02;;;;;;;13.50;5.38;;;9.20;99.90;;;;;;5038126;28;20040;-70
2022/05/15 02:03:28;;;;;;;13.43;5.07;;;9.00;99.90;;;;;;5024574;28;20049;-68
2022/05/15 02:05:54;;;;;;;15.65;6.32;;;9.20;99.90;;;;;;5026467;28;20042;-70
2022/05/15 02:08:19;;;;;;;14.68;5.63;;;9.20;99.90;;;;;;5039437;28;20040;-70
2022/05/15 02:10:45;;;;;;;13.95;6.13;;;9.40;99.90;;;;;;5031096;28;20044;-69
2022/05/15 02:13:11;;;;;;;15.85;6.30;;;9.50;99.90;;;;;;5008781;28;20042;-68
2022/05/15 02:15:37;;;;;;;21.27;7.50;;;9.80;99.90;;;;;;5016647;28;20069;-69
2022/05/15 02:18:04;;;;;;;21.98;7.50;;;9.80;99.90;;;;;;5020978;28;20079;-69
2022/05/15 02:20:31;;;;;;;16.10;6.03;;;9.90;99.90;;;;;;5047938;28;20076;-71
2022/05/15 02:22:57;;;;;;;23.27;7.03;;;10.10;99.90;;;;;;5028632;28;20570;-68
2022/05/15 02:25:23;;;;;;;20.40;7.22;;;10.30;99.90;;;;;;5034511;28;20481;-70
2022/05/15 02:27:49;;;;;;;18.25;6.35;;;10.20;99.90;;;;;;5050784;28;20055;-70
2022/05/15 02:30:16;;;;;;;18.10;6.72;;;10.20;99.90;;;;;;5050787;28;20438;-69
2022/05/15 02:32:42;;;;;;;16.75;6.80;;;10.20;99.90;;;;;;5048773;28;20041;-69
2022/05/15 02:35:09;;;;;;;13.75;5.90;;;10.20;99.90;;;;;;5024741;28;20049;-69
2022/05/15 02:37:35;;;;;;;14.38;5.10;;;9.90;99.90;;;;;;5044785;28;20042;-72
2022/05/15 02:40:02;;;;;;;9.73;4.28;;;9.60;99.90;;;;;;5050983;28;20041;-71
2022/05/15 02:42:27;;;;;;;7.38;3.70;;;9.40;99.90;;;;;;5049223;28;20036;-69
2022/05/15 02:44:53;;;;;;;9.75;4.22;;;9.30;99.90;;;;;;5048853;28;20037;-71
2022/05/15 02:47:19;;;;;;;9.65;4.55;;;9.10;99.90;;;;;;5013919;28;20048;-70
2022/05/15 02:52:29;;;;;;;13.60;5.20;;;9.10;99.90;;;;;;5038623;28;20076;-70
2022/05/15 02:54:54;;;;;;;9.90;3.90;;;9.10;99.90;;;;;;5045536;28;20079;-71
2022/05/15 02:57:20;;;;;;;9.63;4.55;;;9.20;99.90;;;;;;5026267;28;20052;-70
2022/05/15 02:59:46;;;;;;;13.10;4.65;;;9.00;99.90;;;;;;5027555;28;20044;-70
2022/05/15 03:02:11;;;;;;;9.00;4.40;;;8.80;99.90;;;;;;5041680;28;20905;-71
2022/05/15 03:04:37;;;;;;;11.85;5.00;;;8.90;99.90;;;;;;5046722;28;20049;-70
2022/05/15 03:07:05;;;;;;;13.02;5.07;;;9.00;99.90;;;;;;5042839;28;20045;-70
2022/05/15 03:09:31;;;;;;;9.48;4.35;;;9.00;99.90;;;;;;5020882;28;20080;-69
2022/05/15 03:11:57;;;;;;;10.45;5.00;;;8.90;99.90;;;;;;5030822;28;20080;-71
2022/05/15 03:14:22;;;;;;;7.47;3.40;;;8.80;99.90;;;;;;5043078;28;20041;-71
2022/05/15 03:16:48;;;;;;;8.55;3.85;;;8.60;99.90;;;;;;5043407;28;20033;-70
2022/05/15 03:19:14;;;;;;;8.30;3.40;;;8.60;99.90;;;;;;5043402;28;20033;-71
2022/05/15 03:21:40;;;;;;;4.88;2.55;;;8.60;99.90;;;;;;5005540;28;20041;-68
2022/05/15 03:24:08;;;;;;;5.40;2.38;;;8.60;99.90;;;;;;5043714;28;20730;-68
2022/05/15 03:26:38;;;;;;;4.07;1.60;;;8.50;99.90;;;;;;5054819;28;20060;-69
2022/05/15 03:29:05;;;;;;;2.60;1.50;;;8.50;99.90;;;;;;5045376;28;20033;-69
2022/05/15 03:31:35;;;;;;;3.45;2.35;;;8.40;99.90;;;;;;5041883;28;20075;-70
2022/05/15 03:34:02;;;;;;;4.35;2.28;;;8.30;99.90;;;;;;5042671;28;20119;-68
2022/05/15 03:36:28;;;;;;;5.32;1.95;;;8.40;99.90;;;;;;5045876;28;20044;-69
2022/05/15 03:38:54;;;;;;;4.07;2.25;;;8.30;99.90;;;;;;5029799;28;20048;-69
2022/05/15 03:41:19;;;;;;;3.53;2.42;;;8.20;99.90;;;;;;5049307;28;20031;-67
2022/05/15 03:43:45;;;;;;;4.38;2.08;;;8.30;99.90;;;;;;5043190;28;20090;-69
2022/05/15 03:46:11;;;;;;;5.55;2.60;;;8.30;99.90;;;;;;5031276;28;20037;-69
2022/05/15 03:48:37;;;;;;;5.20;2.85;;;8.30;99.90;;;;;;5025383;28;20542;-69
2022/05/15 03:51:03;;;;;;;5.75;2.40;;;8.30;99.90;;;;;;5036313;28;20041;-68
2022/05/15 03:53:30;;;;;;;8.40;3.50;;;8.40;99.90;;;;;;5024943;28;20554;-68
2022/05/15 03:55:58;;;;;;;6.75;3.35;;;8.50;99.90;;;;;;5029708;28;20037;-70
2022/05/15 03:58:26;;;;;;;7.63;2.90;;;8.40;99.90;;;;;;5027975;28;20029;-68
2022/05/15 04:00:52;;;;;;;7.47;3.30;;;8.30;99.90;;;;;;5041247;28;20048;-68
2022/05/15 04:03:18;;;;;;;7.65;3.20;;;8.20;99.90;;;;;;5050460;28;20029;-68
2022/05/15 04:05:45;;;;;;;6.57;3.03;;;8.30;99.90;;;;;;5019011;28;20082;-69
2022/05/15 04:08:11;;;;;;;7.88;3.00;;;8.20;99.90;;;;;;5045906;28;20041;-70
2022/05/15 04:10:37;;;;;;;3.60;2.67;;;8.20;99.90;;;;;;5048417;28;20049;-71
2022/05/15 04:13:04;;;;;;;4.75;3.03;;;8.10;99.90;;;;;;5039630;28;20045;-71
2022/05/15 04:15:30;;;;;;;7.80;3.10;;;8.10;99.90;;;;;;5037875;28;20108;-70
2022/05/15 04:17:56;;;;;;;7.57;3.00;;;8.20;99.90;;;;;;5042923;28;20047;-70
2022/05/15 04:20:24;;;;;;;5.90;3.20;;;8.10;99.90;;;;;;5031576;28;20120;-71
2022/05/15 04:22:50;;;;;;;4.00;2.95;;;8.20;99.90;;;;;;5042762;28;20075;-71
2022/05/15 04:25:17;;;;;;;4.55;2.75;;;8.00;99.90;;;;;;5042004;28;20119;-68
2022/05/15 04:27:43;;;;;;;4.25;2.67;;;8.00;99.90;;;;;;5039974;28;20111;-68
2022/05/15 04:30:13;;;;;;;5.60;2.58;;;8.00;99.90;;;;;;5045460;28;20052;-67
2022/05/15 04:32:41;;;;;;;5.43;3.08;;;8.00;99.90;;;;;;5048203;28;20417;-68
2022/05/15 04:35:07;;;;;;;6.15;2.97;;;8.10;99.90;;;;;;5047732;28;20055;-71
2022/05/15 04:37:33;;;;;;;4.57;2.63;;;8.30;99.90;;;;;;5040157;28;20495;-68
2022/05/15 04:39:59;;;;;;;6.18;2.97;;;8.30;99.90;;;;;;5022419;28;20037;-69
2022/05/15 04:42:25;;;;;;;6.00;2.83;;;8.40;99.90;;;;;;5030216;28;20044;-71
2022/05/15 04:44:51;;;;;;;6.68;2.65;;;8.50;99.90;;;;;;5041501;28;20116;-69
2022/05/15 04:47:17;;;;;;;4.65;2.50;;;8.50;99.90;;;;;;5025049;28;20044;-68
2022/05/15 04:49:43;;;;;;;5.57;3.00;;;8.60;99.90;;;;;;5040519;28;20126;-68
2022/05/15 04:52:10;;;;;;;5.18;2.60;;;8.60;99.90;;;;;;5025110;28;20041;-70
2022/05/15 04:54:36;;;;;;;5.95;2.45;;;8.70;99.90;;;;;;5041180;28;20046;-71
2022/05/15 04:57:03;;;;;;;8.15;3.10;;;8.90;99.90;;;;;;5039301;28;20114;-70
2022/05/15 04:59:28;;;;;;;9.95;4.05;;;8.90;99.90;;;;;;5010626;28;20049;-70
2022/05/15 05:01:54;;;;;;;11.75;4.80;;;9.20;99.90;;;;;;5044936;28;20049;-71
2022/05/15 05:04:20;;;;;;;10.75;4.78;;;9.30;99.90;;;;;;5047275;28;20063;-69
2022/05/15 05:06:45;;;;;;;14.48;5.72;;;9.70;99.90;;;;;;5022685;28;20037;-70
2022/05/15 05:09:11;;;;;;;16.25;6.07;;;9.90;99.90;;;;;;5003267;28;20080;-69
2022/05/15 05:11:37;;;;;;;17.90;6.70;;;10.20;99.90;;;;;;5025474;28;20477;-70
2022/05/15 05:14:03;;;;;;;18.08;6.53;;;10.40;99.90;;;;;;5005553;28;20358;-70
2022/05/15 05:16:30;;;;;;;19.90;7.03;;;10.80;99.90;;;;;;5046360;28;20657;-71
2022/05/15 05:18:56;;;;;;;28.00;7.72;;;10.90;99.90;;;;;;5035369;28;20042;-71
2022/05/15 05:21:22;;;;;;;23.23;6.90;;;11.10;99.90;;;;;;5043419;28;20045;-69
2022/05/15 05:23:48;;;;;;;17.15;6.35;;;11.30;99.90;;;;;;5041490;28;20044;-75
2022/05/15 05:26:13;;;;;;;26.00;8.00;;;11.50;99.90;;;;;;5023520;28;20473;-69
2022/05/15 05:28:39;;;;;;;23.35;8.20;;;11.70;99.90;;;;;;5039202;28;20110;-71
2022/05/15 05:31:05;;;;;;;23.15;7.63;;;11.80;99.90;;;;;;5043784;28;20037;-69
2022/05/15 05:33:31;;;;;;;17.83;7.15;;;11.90;99.90;;;;;;5046038;28;20111;-72
2022/05/15 05:35:57;;;;;;;17.17;6.75;;;12.30;99.90;;;;;;5030408;28;20492;-70
2022/05/15 05:38:23;;;;;;;21.52;6.90;;;12.50;99.90;;;;;;5028710;28;20178;-69
2022/05/15 05:40:49;;;;;;;22.02;6.85;;;12.50;99.90;;;;;;5044609;28;20048;-72
2022/05/15 05:43:15;;;;;;;23.55;6.97;;;12.50;99.90;;;;;;5024317;28;20045;-68
2022/05/15 05:45:41;;;;;;;20.55;6.35;;;12.60;99.90;;;;;;5045981;28;20041;-71
2022/05/15 05:48:07;;;;;;;17.50;5.93;;;12.90;99.90;;;;;;5043331;28;20044;-69
2022/05/15 05:50:33;;;;;;;19.73;6.38;;;12.90;99.90;;;;;;5042182;28;20037;-71
2022/05/15 05:52:59;;;;;;;15.15;5.38;;;13.20;99.90;;;;;;5003148;28;20114;-71
2022/05/15 05:55:26;;;;;;;16.05;5.13;;;13.00;99.90;;;;;;5027403;28;20112;-71
2022/05/15 05:57:52;;;;;;;19.02;6.38;;;13.10;99.90;;;;;;5043408;28;20061;-70
2022/05/15 06:00:20;;;;;;;19.25;7.07;;;13.40;99.90;;;;;;5033679;28;20043;-69
2022/05/15 06:02:46;;;;;;;15.85;6.60;;;13.20;99.90;;;;;;5047689;28;20052;-70
2022/05/15 06:05:11;;;;;;;18.25;6.03;;;13.30;99.90;;;;;;5048818;28;20037;-71
2022/05/15 06:07:38;;;;;;;16.05;5.80;;;13.40;99.90;;;;;;5053123;28;20036;-69
2022/05/15 06:10:07;;;;;;;20.48;6.68;;;13.50;99.90;;;;;;5046215;28;20114;-71
2022/05/15 06:12:33;;;;;;;21.52;5.22;;;13.30;99.90;;;;;;5052070;28;20182;-71
2022/05/15 06:14:59;;;;;;;19.02;5.72;;;13.40;99.90;;;;;;5040320;28;20167;-68
2022/05/15 06:17:27;;;;;;;12.20;4.82;;;13.30;99.90;;;;;;5050511;28;20179;-69
2022/05/15 06:19:53;;;;;;;18.23;5.22;;;13.50;99.90;;;;;;5047658;28;20365;-72
2022/05/15 06:22:19;;;;;;;20.40;5.50;;;13.70;99.90;;;;;;5028552;28;20044;-72
2022/05/15 06:24:45;;;;;;;13.40;5.05;;;13.60;99.90;;;;;;5027071;28;20557;-70
2022/05/15 06:27:11;;;;;;;16.85;5.50;;;13.70;99.90;;;;;;5050417;28;20037;-71
2022/05/15 06:29:39;;;;;;;12.65;4.40;;;13.60;99.90;;;;;;5034985;28;20452;-69
2022/05/15 06:32:06;;;;;;;13.52;4.93;;;13.50;99.90;;;;;;5029043;28;20041;-69
2022/05/15 06:34:32;;;;;;;17.77;4.80;;;13.80;99.90;;;;;;5052173;28;20393;-70
2022/05/15 06:36:58;;;;;;;15.88;4.88;;;13.70;99.90;;;;;;5032501;28;20049;-70
2022/05/15 06:39:24;;;;;;;15.80;4.85;;;13.80;99.90;;;;;;5031006;28;20457;-70
2022/05/15 06:41:50;;;;;;;16.20;4.53;;;13.70;99.90;;;;;;5029770;28;20444;-70
2022/05/15 06:44:19;;;;;;;15.88;4.45;;;13.90;99.90;;;;;;5054972;28;20484;-70
2022/05/15 06:46:46;;;;;;;15.00;4.35;;;13.80;99.90;;;;;;5052017;28;20029;-71
2022/05/15 06:49:13;;;;;;;14.73;4.20;;;13.80;99.90;;;;;;5054255;28;20045;-69
2022/05/15 06:51:39;;;;;;;14.00;4.68;;;14.00;99.90;;;;;;5036183;28;20068;-69
2022/05/15 06:54:04;;;;;;;11.77;3.40;;;13.80;99.90;;;;;;5023603;28;20080;-69
2022/05/15 06:59:14;;;;;;;15.15;4.38;;;14.00;99.90;;;;;;5038119;28;20037;-69
2022/05/15 07:01:40;;;;;;;15.15;4.20;;;14.10;99.90;;;;;;5048281;28;20066;-69
2022/05/15 07:04:05;;;;;;;15.02;4.20;;;14.20;99.90;;;;;;5052923;28;20041;-68
2022/05/15 07:06:31;;;;;;;12.73;4.00;;;14.20;99.90;;;;;;5043259;28;20040;-70
2022/05/15 07:08:57;;;;;;;14.38;4.82;;;14.30;99.90;;;;;;5037333;28;20597;-67
2022/05/15 07:11:24;;;;;;;17.05;4.55;;;14.50;99.90;;;;;;5031672;28;20652;-69
2022/05/15 07:13:49;;;;;;;15.05;4.35;;;14.60;99.90;;;;;;5040002;28;20033;-69
2022/05/15 07:16:15;;;;;;;19.80;5.32;;;14.70;99.90;;;;;;5020946;28;21141;-67
2022/05/15 07:18:42;;;;;;;13.60;4.68;;;14.60;99.90;;;;;;5041735;28;20048;-69
2022/05/15 07:21:08;;;;;;;9.52;3.88;;;14.80;99.90;;;;;;5024979;28;20060;-69
2022/05/15 07:23:34;;;;;;;12.00;3.63;;;14.90;99.90;;;;;;5044622;28;20405;-70
2022/05/15 07:26:02;;;;;;;12.55;3.42;;;14.90;99.90;;;;;;5037500;28;20481;-70
2022/05/15 07:28:28;;;;;;;18.48;4.40;;;15.10;99.90;;;;;;5042053;28;20047;-68
2022/05/15 07:30:54;;;;;;;10.68;3.75;;;15.00;99.90;;;;;;5025405;28;20048;-70
2022/05/15 07:33:21;;;;;;;13.20;4.25;;;15.20;99.90;;;;;;5051678;28;20069;-71
2022/05/15 07:35:47;;;;;;;13.52;3.97;;;15.30;99.90;;;;;;5008662;28;20052;-70
2022/05/15 07:38:13;;;;;;;11.93;3.75;;;15.40;99.90;;;;;;5029587;28;20032;-71
2022/05/15 07:40:39;;;;;;;14.02;4.53;;;15.30;99.90;;;;;;5044051;28;20048;-70
2022/05/15 07:43:07;;;;;;;12.45;4.03;;;15.30;99.90;;;;;;5030744;28;20076;-70
2022/05/15 07:45:33;;;;;;;13.70;4.18;;;15.40;99.90;;;;;;5051689;28;20039;-68
2022/05/15 07:47:59;;;;;;;15.65;4.15;;;15.50;99.90;;;;;;5042092;28;20033;-70
2022/05/15 07:50:25;;;;;;;15.00;4.47;;;15.60;99.90;;;;;;5007261;28;20045;-69
2022/05/15 07:52:51;;;;;;;12.43;3.90;;;15.70;99.90;;;;;;5023790;28;20055;-69
2022/05/15 07:55:17;;;;;;;13.73;3.80;;;15.80;99.90;;;;;;5028622;28;20029;-70
2022/05/15 07:57:42;;;;;;;10.95;3.50;;;15.80;99.90;;;;;;5001817;28;20386;-67
2022/05/15 08:00:11;;;;;;;9.85;3.53;;;15.90;99.90;;;;;;5028550;28;20080;-71
2022/05/15 08:02:37;;;;;;;9.50;3.38;;;15.90;99.90;;;;;;5044239;28;20040;-70
2022/05/15 08:08:03;;;;;;;11.00;3.78;;;16.00;99.90;;;;;;5046435;28;20041;-72
2022/05/15 08:10:39;;;;;;;11.13;3.45;;;16.10;99.90;;;;;;5025834;28;20065;-72
2022/05/15 08:13:05;;;;;;;11.82;3.95;;;16.10;99.90;;;;;;5022295;28;20068;-70
2022/05/15 08:15:32;;;;;;;11.77;3.40;;;16.10;99.90;;;;;;5050729;28;20029;-69
2022/05/15 08:23:34;;;;;;;11.10;3.10;;;16.30;99.90;;;;;;5036858;28;20137;-71
2022/05/15 08:26:00;;;;;;;12.23;3.65;;;16.50;99.90;;;;;;5040539;28;20075;-72
2022/05/15 08:28:26;;;;;;;8.40;3.10;;;16.40;99.90;;;;;;5026032;28;20041;-71
2022/05/15 08:30:53;;;;;;;11.93;3.53;;;16.50;99.90;;;;;;5046768;28;20049;-71
2022/05/15 08:33:18;;;;;;;10.98;3.58;;;16.70;99.90;;;;;;5046137;28;20396;-70
2022/05/15 08:35:44;;;;;;;7.97;2.47;;;16.70;99.90;;;;;;5027849;28;20041;-70
2022/05/15 08:38:10;;;;;;;11.00;3.40;;;16.80;99.90;;;;;;5024330;28;20096;-72
2022/05/15 08:40:48;;;;;;;10.77;3.03;;;16.90;99.90;;;;;;5045785;28;20063;-70
2022/05/15 08:43:18;;;;;;;10.18;2.80;;;17.00;99.90;;;;;;5038759;28;20107;-69
2022/05/15 08:46:05;;;;;;;7.90;2.65;;;17.10;99.90;;;;;;5045455;28;20048;-70
2022/05/15 08:48:37;;;;;;;11.82;3.50;;;17.20;99.90;;;;;;5040500;28;20123;-69
2022/05/15 08:51:04;;;;;;;8.68;2.63;;;17.20;99.90;;;;;;5055353;28;20417;-71
2022/05/15 08:53:36;;;;;;;14.32;3.45;;;17.20;99.90;;;;;;5024239;28;20037;-72
2022/05/15 08:56:07;;;;;;;10.15;4.03;;;17.40;99.90;;;;;;5044623;28;20044;-70
2022/05/15 08:58:47;;;;;;;13.55;3.53;;;17.50;99.90;;;;;;5013534;28;20045;-70
2022/05/15 09:01:17;;;;;;;8.20;3.42;;;17.60;99.90;;;;;;5025240;28;20048;-72
2022/05/15 09:03:43;;;;;;;7.93;2.83;;;18.00;99.90;;;;;;5049475;28;20109;-70
2022/05/15 09:06:27;;;;;;;9.27;2.70;;;18.10;99.90;;;;;;5028470;28;20152;-70
2022/05/15 09:09:24;;;;;;;10.07;3.42;;;18.30;99.90;;;;;;5031910;28;20045;-70
2022/05/15 09:12:16;;;;;;;9.35;3.30;;;18.60;99.90;;;;;;5044863;28;20825;-71
2022/05/15 09:15:16;;;;;;;6.85;2.55;;;18.70;99.90;;;;;;5042960;28;20037;-71
2022/05/15 09:17:49;;;;;;;7.70;2.95;;;18.60;99.90;;;;;;5041830;28;20033;-71
2022/05/15 09:20:27;;;;;;;9.82;2.80;;;18.90;99.90;;;;;;5046455;28;20049;-71
2022/05/15 09:23:17;;;;;;;11.35;3.20;;;18.90;99.90;;;;;;5043032;28;20041;-72
2022/05/15 09:25:59;;;;;;;7.38;3.03;;;19.50;99.90;;;;;;5015776;28;20110;-72
2022/05/15 09:28:28;;;;;;;8.60;3.08;;;19.60;99.90;;;;;;5054615;28;20090;-70
2022/05/15 09:30:59;;;;;;;9.82;3.20;;;19.60;99.90;;;;;;5014213;28;20409;-69
2022/05/15 09:33:44;;;;;;;8.88;3.17;;;19.70;99.90;;;;;;5045347;28;20044;-70
2022/05/15 09:36:16;;;;;;;11.18;3.83;;;19.90;99.90;;;;;;5021412;28;20690;-72
2022/05/15 09:38:41;;;;;;;7.57;2.65;;;20.30;99.90;;;;;;5041078;28;20037;-71
2022/05/15 09:44:10;;;;;;;7.28;2.92;;;20.80;99.90;;;;;;5044986;28;20056;-72
2022/05/15 09:46:40;;;;;;;9.70;3.33;;;20.30;99.90;;;;;;5040202;28;20496;-70
2022/05/15 09:49:21;;;;;;;6.72;2.97;;;20.80;99.90;;;;;;5009097;28;20049;-70
2022/05/15 09:51:50;;;;;;;7.85;2.47;;;20.80;99.90;;;;;;5042447;28;20041;-71
2022/05/15 09:54:30;;;;;;;9.73;2.78;;;20.80;99.90;;;;;;5044656;28;20385;-72
2022/05/15 09:57:10;;;;;;;12.50;3.53;;;20.90;99.90;;;;;;5043317;28;20037;-69
2022/05/15 09:59:36;;;;;;;7.80;3.00;;;21.60;99.90;;;;;;5039980;28;20088;-72
2022/05/15 10:02:02;;;;;;;8.60;2.67;;;21.90;99.90;;;;;;5019045;28;20402;-72
2022/05/15 10:04:31;;;;;;;8.15;2.70;;;21.80;99.90;;;;;;5041955;28;20040;-70
2022/05/15 10:07:09;;;;;;;7.93;2.70;;;21.90;99.90;;;;;;5042482;28;20111;-72
2022/05/15 10:09:41;;;;;;;7.07;2.65;;;22.10;99.90;;;;;;5042137;28;20032;-72
2022/05/15 10:12:29;;;;;;;10.27;2.60;;;21.90;99.90;;;;;;5023975;28;20495;-70
2022/05/15 10:15:02;;;;;;;7.70;3.28;;;21.90;99.90;;;;;;5046109;28;20040;-68
2022/05/15 10:17:29;;;;;;;7.47;2.35;;;21.90;99.90;;;;;;5037134;28;20056;-70
2022/05/15 10:20:13;;;;;;;8.10;2.75;;;21.80;99.90;;;;;;5022819;28;20036;-68
2022/05/15 10:22:59;;;;;;;8.93;2.88;;;21.90;99.90;;;;;;5038585;28;20491;-69
2022/05/15 10:25:44;;;;;;;10.35;3.35;;;20.70;99.90;;;;;;5042863;28;20064;-70
2022/05/15 10:28:26;;;;;;;7.57;2.90;;;21.20;99.90;;;;;;5034500;28;20394;-69
2022/05/15 10:31:01;;;;;;;9.15;2.80;;;21.20;99.90;;;;;;5038731;28;20478;-69
2022/05/15 10:33:36;;;;;;;7.82;2.78;;;21.90;99.90;;;;;;5043137;28;20124;-71
2022/05/15 10:36:24;;;;;;;7.57;3.13;;;22.00;99.90;;;;;;5023902;28;20044;-68
2022/05/15 10:39:02;;;;;;;8.98;2.83;;;21.90;99.90;;;;;;5045469;28;20041;-69
2022/05/15 10:41:34;;;;;;;7.57;3.03;;;21.60;99.90;;;;;;5033512;28;20044;-68
2022/05/15 10:44:34;;;;;;;8.13;2.88;;;21.00;99.90;;;;;;5043312;28;20044;-70
2022/05/15 10:47:16;;;;;;;10.52;2.88;;;21.40;99.90;;;;;;5047211;28;20132;-70
2022/05/15 10:49:42;;;;;;;7.40;2.83;;;21.00;99.90;;;;;;5040404;28;20052;-69
2022/05/15 10:52:20;;;;;;;8.35;3.10;;;20.90;99.90;;;;;;5018103;28;20493;-71
2022/05/15 10:58:17;;;;;;;8.65;2.95;;;21.10;99.90;;;;;;5042967;28;20099;-72
2022/05/15 11:01:01;;;;;;;7.77;3.17;;;21.50;99.90;;;;;;5005587;28;20384;-72
2022/05/15 11:03:34;;;;;;;7.18;2.90;;;21.90;99.90;;;;;;5029259;28;20302;-71
2022/05/15 11:06:21;;;;;;;9.13;2.65;;;22.40;99.90;;;;;;5029729;28;20053;-69
2022/05/15 11:09:13;;;;;;;7.35;2.85;;;21.50;99.90;;;;;;5047272;28;20125;-71
2022/05/15 11:11:56;;;;;;;5.57;2.35;;;22.00;99.90;;;;;;5023601;28;20045;-69
2022/05/15 11:14:34;;;;;;;6.60;2.77;;;22.70;99.90;;;;;;5026745;28;20381;-71
2022/05/15 11:17:22;;;;;;;9.70;3.08;;;21.60;99.90;;;;;;5026204;28;20300;-71
2022/05/15 11:19:49;;;;;;;6.28;2.42;;;21.40;99.90;;;;;;5025999;28;20068;-71
2022/05/15 11:22:31;;;;;;;5.85;2.50;;;21.40;99.90;;;;;;5044674;28;20532;-70
2022/05/15 11:25:20;;;;;;;9.13;2.50;;;22.20;98.70;;;;;;5038971;28;20098;-71
2022/05/15 11:27:55;;;;;;;6.38;2.38;;;22.20;98.10;;;;;;5025366;28;20033;-72
2022/05/15 11:30:29;;;;;;;5.95;2.42;;;21.80;99.90;;;;;;5046668;28;20048;-68
2022/05/15 11:32:55;;;;;;;4.95;2.42;;;21.50;99.90;;;;;;5022197;28;20049;-71
2022/05/15 11:35:21;;;;;;;7.93;2.58;;;21.30;99.90;;;;;;5046719;28;20037;-70
2022/05/15 11:37:55;;;;;;;5.40;2.17;;;21.70;99.90;;;;;;5042256;28;20112;-71
2022/05/15 11:40:44;;;;;;;5.53;2.17;;;22.00;99.90;;;;;;5039480;28;20072;-70
2022/05/15 11:43:31;;;;;;;5.85;2.15;;;21.90;95.10;;;;;;5010836;28;20056;-70
2022/05/15 11:45:58;;;;;;;7.65;2.50;;;22.00;96.50;;;;;;5046358;28;20102;-70
2022/05/15 11:48:31;;;;;;;6.35;2.17;;;21.50;98.60;;;;;;5045717;28;20150;-68
2022/05/15 11:51:02;;;;;;;5.57;2.23;;;22.30;95.70;;;;;;5040259;28;20477;-69
2022/05/15 11:53:37;;;;;;;5.50;2.15;;;22.10;97.00;;;;;;5044234;28;20041;-71
2022/05/15 11:56:27;;;;;;;5.20;2.40;;;22.50;94.50;;;;;;5038529;28;20051;-71
2022/05/15 11:59:07;;;;;;;6.97;2.05;;;22.30;87.50;;;;;;5046864;28;20048;-71
2022/05/15 12:01:35;;;;;;;5.15;2.13;;;22.50;90.30;;;;;;5044354;28;20110;-70
2022/05/15 12:04:33;;;;;;;6.32;2.40;;;22.50;91.60;;;;;;5037419;28;20583;-70
2022/05/15 12:06:59;;;;;;;6.47;2.38;;;22.10;87.70;;;;;;5017161;28;20045;-71
2022/05/15 12:09:39;;;;;;;4.60;1.85;;;22.70;90.80;;;;;;5044477;28;20048;-70
2022/05/15 12:12:32;;;;;;;4.97;2.20;;;22.80;81.80;;;;;;5036491;28;20045;-71
2022/05/15 12:15:06;;;;;;;4.80;1.80;;;21.30;83.20;;;;;;5040509;28;20076;-70
2022/05/15 12:17:44;;;;;;;5.88;2.25;;;21.60;83.50;;;;;;5033204;28;20425;-68
2022/05/15 12:20:15;;;;;;;6.75;2.35;;;21.40;92.70;;;;;;5031714;28;20398;-69
2022/05/15 12:23:11;;;;;;;4.82;2.22;;;21.70;93.50;;;;;;5038513;28;20091;-70
2022/05/15 12:26:03;;;;;;;7.35;2.67;;;21.80;98.60;;;;;;5034634;28;20045;-70
2022/05/15 12:28:53;;;;;;;7.40;2.40;;;21.50;97.30;;;;;;5027913;28;20049;-71
2022/05/15 12:31:35;;;;;;;4.95;2.28;;;21.70;96.40;;;;;;5050281;28;20049;-69
2022/05/15 12:34:27;;;;;;;5.68;2.40;;;22.10;97.00;;;;;;5042927;28;20049;-70
2022/05/15 12:36:57;;;;;;;10.02;2.80;;;22.10;98.10;;;;;;5036572;28;20915;-70
2022/05/15 12:39:26;;;;;;;4.55;1.95;;;21.70;98.50;;;;;;5039047;28;20442;-68
2022/05/15 12:41:52;;;;;;;6.70;2.25;;;21.30;97.30;;;;;;5034846;28;20477;-71
2022/05/15 12:44:34;;;;;;;4.55;2.00;;;21.10;97.10;;;;;;5042292;28;20086;-71
2022/05/15 12:47:03;;;;;;;5.63;2.20;;;21.20;95.30;;;;;;5018117;28;20049;-70
2022/05/15 12:49:35;;;;;;;6.35;2.42;;;21.50;99.30;;;;;;5041433;28;20052;-69
2022/05/15 12:52:27;;;;;;;7.38;2.17;;;21.50;99.00;;;;;;5041230;28;20040;-69
2022/05/15 12:55:36;;;;;;;4.40;2.00;;;22.00;97.70;;;;;;5047622;28;20182;-70
2022/05/15 12:58:05;;;;;;;6.32;2.63;;;22.30;93.80;;;;;;5041683;28;20084;-70
2022/05/15 13:00:42;;;;;;;5.65;2.25;;;21.80;94.00;;;;;;5022013;28;20116;-70
2022/05/15 13:03:11;;;;;;;5.55;2.50;;;22.30;94.50;;;;;;5017568;28;20053;-69
2022/05/15 13:05:49;;;;;;;6.00;2.40;;;21.70;95.80;;;;;;5036588;28;20037;-70
2022/05/15 13:08:15;;;;;;;8.23;2.80;;;22.50;96.80;;;;;;5023630;28;20036;-71
2022/05/15 13:10:55;;;;;;;7.07;2.53;;;22.40;96.60;;;;;;5021112;28;20084;-71
2022/05/15 13:13:26;;;;;;;5.78;2.35;;;22.20;96.80;;;;;;5024359;28;20133;-71
2022/05/15 13:15:54;;;;;;;6.90;2.30;;;21.60;96.80;;;;;;5030297;28;20048;-71
2022/05/15 13:18:23;;;;;;;6.07;2.53;;;22.10;97.70;;;;;;5026806;28;20401;-70
2022/05/15 13:21:01;;;;;;;7.18;2.88;;;21.90;99.10;;;;;;5030847;28;20098;-71